NDF3PC EDDL-EDDH
Flight info
| Callsign | NDF3PC |
|---|---|
| Flight time | 0h 37m |
| Altitude | 35000 |
| Route | MEVEL1Z MEVEL Y850 BASUM/N0438F340 Y850 PIXUR/N0439F330 Y850 MUBZI M105 RIBSO RIBSO7A |
| Aircraft | A319/M-SDE3FGHIRWY/LB1 |
Departure
| Time | 2026-05-05 14:57 |
|---|---|
| Airport | Düsseldorf Airport (EDDL) |
Arrival
| Time | 2026-05-05 15:34 |
|---|---|
| Airport | Hamburg Helmut Schmidt Airport (EDDH) |
| Time | Latitude | Longitude | Altitude | Speed | Heading |
|---|---|---|---|---|---|
| 2026-05-05 14:33 | 51.28070 | 6.76518 | 131 ft | 0 kts | 96° |
| 2026-05-05 14:48 | 51.28072 | 6.76495 | 126 ft | 4 kts | 82° |
| 2026-05-05 14:48 | 51.28061 | 6.76463 | 127 ft | 4 kts | 5° |
| 2026-05-05 14:48 | 51.28050 | 6.76464 | 125 ft | 0 kts | 327° |
| 2026-05-05 14:51 | 51.28051 | 6.76464 | 125 ft | 0 kts | 327° |
| 2026-05-05 14:51 | 51.28074 | 6.76439 | 127 ft | 7 kts | 327° |
| 2026-05-05 14:51 | 51.28126 | 6.76361 | 133 ft | 13 kts | 301° |
| 2026-05-05 14:52 | 51.28192 | 6.76230 | 134 ft | 17 kts | 294° |
| 2026-05-05 14:52 | 51.28199 | 6.76083 | 133 ft | 0 kts | 311° |
| 2026-05-05 14:53 | 51.28205 | 6.76075 | 133 ft | 2 kts | 323° |
| 2026-05-05 14:54 | 51.28225 | 6.76060 | 134 ft | 4 kts | 336° |
| 2026-05-05 14:54 | 51.28233 | 6.76055 | 134 ft | 0 kts | 340° |
| 2026-05-05 14:54 | 51.28238 | 6.76053 | 134 ft | 4 kts | 341° |
| 2026-05-05 14:55 | 51.28339 | 6.76054 | 133 ft | 17 kts | 15° |
| 2026-05-05 14:55 | 51.28393 | 6.76107 | 127 ft | 0 kts | 51° |
| 2026-05-05 14:55 | 51.28393 | 6.76109 | 127 ft | 1 kts | 51° |
| 2026-05-05 14:56 | 51.28463 | 6.76253 | 131 ft | 44 kts | 52° |
| 2026-05-05 14:56 | 51.28773 | 6.76897 | 142 ft | 101 kts | 52° |
| 2026-05-05 14:56 | 51.29311 | 6.78021 | 207 ft | 146 kts | 49° |
| 2026-05-05 14:56 | 51.29901 | 6.79378 | 747 ft | 150 kts | 53° |
| 2026-05-05 14:57 | 51.30545 | 6.80815 | 1202 ft | 170 kts | 51° |
| 2026-05-05 14:57 | 51.31318 | 6.82415 | 1661 ft | 193 kts | 51° |
| 2026-05-05 14:57 | 51.32195 | 6.84219 | 2195 ft | 218 kts | 52° |
| 2026-05-05 14:57 | 51.33174 | 6.86243 | 2789 ft | 242 kts | 52° |
| 2026-05-05 14:58 | 51.34208 | 6.88461 | 3609 ft | 254 kts | 53° |
| 2026-05-05 14:58 | 51.35543 | 6.90359 | 4494 ft | 265 kts | 27° |
| 2026-05-05 14:58 | 51.37336 | 6.91191 | 4878 ft | 271 kts | 10° |
| 2026-05-05 14:58 | 51.39209 | 6.91699 | 5336 ft | 276 kts | 8° |
| 2026-05-05 14:59 | 51.41110 | 6.92165 | 6350 ft | 279 kts | 8° |
| 2026-05-05 14:59 | 51.43045 | 6.92636 | 7242 ft | 284 kts | 8° |
| 2026-05-05 14:59 | 51.45014 | 6.93131 | 8143 ft | 289 kts | 9° |
| 2026-05-05 14:59 | 51.47025 | 6.93653 | 9045 ft | 295 kts | 9° |
| 2026-05-05 15:00 | 51.49076 | 6.94115 | 9923 ft | 300 kts | 3° |
| 2026-05-05 15:00 | 51.50488 | 6.94119 | 10234 ft | 314 kts | 355° |
| 2026-05-05 15:00 | 51.53479 | 6.93356 | 10656 ft | 343 kts | 349° |
| 2026-05-05 15:00 | 51.55863 | 6.92670 | 11267 ft | 352 kts | 349° |
| 2026-05-05 15:01 | 51.58291 | 6.91974 | 12032 ft | 357 kts | 349° |
| 2026-05-05 15:01 | 51.60747 | 6.91274 | 12798 ft | 361 kts | 349° |
| 2026-05-05 15:01 | 51.63234 | 6.90573 | 13563 ft | 365 kts | 350° |
| 2026-05-05 15:01 | 51.65757 | 6.90047 | 14233 ft | 368 kts | 359° |
| 2026-05-05 15:02 | 51.68314 | 6.90425 | 14891 ft | 371 kts | 13° |
| 2026-05-05 15:02 | 51.70756 | 6.91794 | 15556 ft | 374 kts | 27° |
| 2026-05-05 15:02 | 51.72928 | 6.94103 | 16200 ft | 376 kts | 42° |
| 2026-05-05 15:02 | 51.74694 | 6.97213 | 16843 ft | 378 kts | 55° |
| 2026-05-05 15:03 | 51.76259 | 7.00652 | 17494 ft | 382 kts | 55° |
| 2026-05-05 15:03 | 51.77842 | 7.04134 | 18116 ft | 387 kts | 55° |
| 2026-05-05 15:03 | 51.79443 | 7.07650 | 18692 ft | 391 kts | 55° |
| 2026-05-05 15:03 | 51.81061 | 7.11205 | 19250 ft | 395 kts | 55° |
| 2026-05-05 15:04 | 51.82692 | 7.14799 | 19832 ft | 398 kts | 55° |
| 2026-05-05 15:04 | 51.84336 | 7.18426 | 20433 ft | 402 kts | 55° |
| 2026-05-05 15:04 | 51.86089 | 7.21977 | 21015 ft | 407 kts | 48° |
| 2026-05-05 15:04 | 51.88061 | 7.25295 | 21580 ft | 411 kts | 47° |
| 2026-05-05 15:05 | 51.92052 | 7.32025 | 22645 ft | 418 kts | 47° |
| 2026-05-05 15:05 | 51.94072 | 7.35444 | 23160 ft | 422 kts | 47° |
| 2026-05-05 15:05 | 51.96107 | 7.38893 | 23625 ft | 425 kts | 47° |
| 2026-05-05 15:06 | 51.98161 | 7.42376 | 24040 ft | 429 kts | 47° |
| 2026-05-05 15:06 | 52.00227 | 7.45892 | 24458 ft | 432 kts | 47° |
| 2026-05-05 15:06 | 52.02307 | 7.49440 | 24867 ft | 435 kts | 47° |
| 2026-05-05 15:06 | 52.04402 | 7.53018 | 25278 ft | 439 kts | 47° |
| 2026-05-05 15:07 | 52.06508 | 7.56622 | 25681 ft | 442 kts | 47° |
| 2026-05-05 15:07 | 52.08631 | 7.60258 | 26080 ft | 445 kts | 47° |
| 2026-05-05 15:07 | 52.10772 | 7.63922 | 26484 ft | 448 kts | 47° |
| 2026-05-05 15:07 | 52.12948 | 7.67588 | 26878 ft | 452 kts | 46° |
| 2026-05-05 15:08 | 52.15154 | 7.71255 | 27277 ft | 455 kts | 46° |
| 2026-05-05 15:08 | 52.17385 | 7.74943 | 27663 ft | 459 kts | 46° |
| 2026-05-05 15:08 | 52.19626 | 7.78664 | 28048 ft | 462 kts | 46° |
| 2026-05-05 15:08 | 52.21872 | 7.82443 | 28429 ft | 466 kts | 46° |
| 2026-05-05 15:09 | 52.24119 | 7.86275 | 28790 ft | 469 kts | 47° |
| 2026-05-05 15:09 | 52.26373 | 7.90152 | 29151 ft | 473 kts | 47° |
| 2026-05-05 15:09 | 52.28641 | 7.94066 | 29513 ft | 476 kts | 47° |
| 2026-05-05 15:09 | 52.30923 | 7.98003 | 29884 ft | 479 kts | 47° |
| 2026-05-05 15:10 | 52.33226 | 8.01977 | 30215 ft | 483 kts | 47° |
| 2026-05-05 15:10 | 52.35542 | 8.05970 | 30517 ft | 486 kts | 46° |
| 2026-05-05 15:10 | 52.37875 | 8.09989 | 30802 ft | 488 kts | 46° |
| 2026-05-05 15:10 | 52.40219 | 8.14032 | 31092 ft | 491 kts | 46° |
| 2026-05-05 15:11 | 52.42567 | 8.18097 | 31477 ft | 491 kts | 46° |
| 2026-05-05 15:11 | 52.44913 | 8.22163 | 31875 ft | 491 kts | 46° |
| 2026-05-05 15:11 | 52.47257 | 8.26227 | 32274 ft | 491 kts | 46° |
| 2026-05-05 15:11 | 52.49603 | 8.30305 | 32674 ft | 491 kts | 46° |
| 2026-05-05 15:12 | 52.51944 | 8.34387 | 33071 ft | 491 kts | 46° |
| 2026-05-05 15:12 | 52.54287 | 8.38476 | 33490 ft | 491 kts | 46° |
| 2026-05-05 15:12 | 52.56626 | 8.42563 | 33911 ft | 491 kts | 46° |
| 2026-05-05 15:12 | 52.58930 | 8.46600 | 34298 ft | 490 kts | 46° |
| 2026-05-05 15:13 | 52.61259 | 8.50692 | 34685 ft | 490 kts | 46° |
| 2026-05-05 15:13 | 52.63585 | 8.54783 | 34865 ft | 489 kts | 46° |
| 2026-05-05 15:13 | 52.65901 | 8.58857 | 34903 ft | 485 kts | 46° |
| 2026-05-05 15:14 | 52.70501 | 8.66974 | 34760 ft | 485 kts | 46° |
| 2026-05-05 15:14 | 52.72933 | 8.70824 | 34157 ft | 486 kts | 37° |
| 2026-05-05 15:14 | 52.75700 | 8.73999 | 33511 ft | 483 kts | 27° |
| 2026-05-05 15:14 | 52.78709 | 8.76395 | 32828 ft | 478 kts | 17° |
| 2026-05-05 15:15 | 52.81876 | 8.77974 | 32167 ft | 474 kts | 8° |
| 2026-05-05 15:15 | 52.85128 | 8.78719 | 31519 ft | 470 kts | 359° |
| 2026-05-05 15:15 | 52.88390 | 8.78765 | 30891 ft | 469 kts | 355° |
| 2026-05-05 15:15 | 52.91648 | 8.78733 | 30271 ft | 467 kts | 355° |
| 2026-05-05 15:16 | 52.94888 | 8.78715 | 29605 ft | 464 kts | 356° |
| 2026-05-05 15:16 | 52.98117 | 8.79096 | 28834 ft | 467 kts | 4° |
| 2026-05-05 15:16 | 53.01325 | 8.79843 | 28092 ft | 465 kts | 4° |
| 2026-05-05 15:16 | 53.04517 | 8.80583 | 27373 ft | 462 kts | 4° |
| 2026-05-05 15:17 | 53.07689 | 8.81312 | 26673 ft | 458 kts | 4° |
| 2026-05-05 15:17 | 53.10839 | 8.82028 | 25987 ft | 455 kts | 4° |
| 2026-05-05 15:17 | 53.13958 | 8.82732 | 25315 ft | 451 kts | 4° |
| 2026-05-05 15:17 | 53.17056 | 8.83431 | 24661 ft | 447 kts | 5° |
| 2026-05-05 15:18 | 53.20127 | 8.84130 | 23968 ft | 443 kts | 5° |
| 2026-05-05 15:18 | 53.23142 | 8.84824 | 23213 ft | 431 kts | 5° |
| 2026-05-05 15:18 | 53.26072 | 8.85502 | 22398 ft | 419 kts | 5° |
| 2026-05-05 15:18 | 53.28925 | 8.86162 | 21609 ft | 409 kts | 5° |
| 2026-05-05 15:19 | 53.31718 | 8.86806 | 20832 ft | 401 kts | 5° |
| 2026-05-05 15:19 | 53.34443 | 8.87619 | 20078 ft | 396 kts | 12° |
| 2026-05-05 15:19 | 53.37063 | 8.89122 | 19354 ft | 401 kts | 20° |
| 2026-05-05 15:19 | 53.39642 | 8.90946 | 18632 ft | 403 kts | 20° |
| 2026-05-05 15:20 | 53.42231 | 8.92783 | 17889 ft | 405 kts | 20° |
| 2026-05-05 15:20 | 53.44827 | 8.94625 | 17086 ft | 406 kts | 20° |
| 2026-05-05 15:20 | 53.47418 | 8.96464 | 16299 ft | 400 kts | 20° |
| 2026-05-05 15:20 | 53.49941 | 8.98261 | 15541 ft | 388 kts | 21° |
| 2026-05-05 15:21 | 53.52386 | 9.00008 | 14805 ft | 376 kts | 21° |
| 2026-05-05 15:21 | 53.54668 | 9.02052 | 14085 ft | 368 kts | 31° |
| 2026-05-05 15:21 | 53.56739 | 9.04511 | 13327 ft | 361 kts | 34° |
| 2026-05-05 15:21 | 53.58764 | 9.06942 | 12544 ft | 355 kts | 34° |
| 2026-05-05 15:22 | 53.60763 | 9.09333 | 11775 ft | 349 kts | 34° |
| 2026-05-05 15:22 | 53.62726 | 9.11682 | 11019 ft | 343 kts | 34° |
| 2026-05-05 15:22 | 53.64656 | 9.13992 | 10290 ft | 338 kts | 34° |
| 2026-05-05 15:22 | 53.66555 | 9.16270 | 9543 ft | 333 kts | 34° |
| 2026-05-05 15:23 | 53.68414 | 9.18557 | 8734 ft | 329 kts | 39° |
| 2026-05-05 15:23 | 53.69825 | 9.21531 | 7973 ft | 326 kts | 63° |
| 2026-05-05 15:23 | 53.70407 | 9.25174 | 7247 ft | 322 kts | 89° |
| 2026-05-05 15:23 | 53.70020 | 9.28754 | 6979 ft | 301 kts | 115° |
| 2026-05-05 15:24 | 53.68875 | 9.31579 | 6901 ft | 286 kts | 133° |
| 2026-05-05 15:24 | 53.67554 | 9.34061 | 6907 ft | 284 kts | 134° |
| 2026-05-05 15:24 | 53.66220 | 9.36512 | 6912 ft | 283 kts | 134° |
| 2026-05-05 15:24 | 53.64885 | 9.38956 | 6913 ft | 283 kts | 134° |
| 2026-05-05 15:25 | 53.63549 | 9.41394 | 6912 ft | 283 kts | 134° |
| 2026-05-05 15:25 | 53.62210 | 9.43831 | 6763 ft | 286 kts | 134° |
| 2026-05-05 15:25 | 53.60852 | 9.46287 | 6250 ft | 284 kts | 134° |
| 2026-05-05 15:25 | 53.59510 | 9.48691 | 5747 ft | 280 kts | 134° |
| 2026-05-05 15:26 | 53.58176 | 9.51041 | 5231 ft | 275 kts | 134° |
| 2026-05-05 15:26 | 53.56852 | 9.53327 | 4729 ft | 271 kts | 134° |
| 2026-05-05 15:26 | 53.55534 | 9.55559 | 4209 ft | 267 kts | 134° |
| 2026-05-05 15:26 | 53.54222 | 9.57740 | 3688 ft | 264 kts | 134° |
| 2026-05-05 15:27 | 53.52924 | 9.59846 | 3196 ft | 261 kts | 134° |
| 2026-05-05 15:27 | 53.51630 | 9.61926 | 3004 ft | 253 kts | 134° |
| 2026-05-05 15:27 | 53.50394 | 9.63911 | 3002 ft | 239 kts | 134° |
| 2026-05-05 15:27 | 53.49254 | 9.65853 | 3001 ft | 230 kts | 124° |
| 2026-05-05 15:28 | 53.48729 | 9.68296 | 3005 ft | 219 kts | 89° |
| 2026-05-05 15:28 | 53.49072 | 9.70636 | 3007 ft | 200 kts | 58° |
| 2026-05-05 15:28 | 53.49886 | 9.72378 | 3034 ft | 179 kts | 48° |
| 2026-05-05 15:28 | 53.50649 | 9.73901 | 3001 ft | 162 kts | 49° |
| 2026-05-05 15:29 | 53.51331 | 9.75266 | 2992 ft | 145 kts | 49° |
| 2026-05-05 15:29 | 53.51965 | 9.76535 | 2999 ft | 140 kts | 48° |
| 2026-05-05 15:29 | 53.52580 | 9.77767 | 2919 ft | 137 kts | 49° |
| 2026-05-05 15:29 | 53.53172 | 9.78954 | 2782 ft | 129 kts | 48° |
| 2026-05-05 15:30 | 53.53738 | 9.80090 | 2626 ft | 125 kts | 49° |
| 2026-05-05 15:30 | 53.54294 | 9.81207 | 2474 ft | 124 kts | 48° |
| 2026-05-05 15:30 | 53.54851 | 9.82324 | 2301 ft | 124 kts | 49° |
| 2026-05-05 15:30 | 53.55402 | 9.83433 | 2133 ft | 123 kts | 49° |
| 2026-05-05 15:31 | 53.55950 | 9.84533 | 1963 ft | 123 kts | 49° |
| 2026-05-05 15:31 | 53.56496 | 9.85631 | 1797 ft | 122 kts | 49° |
| 2026-05-05 15:31 | 53.57042 | 9.86731 | 1625 ft | 122 kts | 50° |
| 2026-05-05 15:31 | 53.57578 | 9.87809 | 1464 ft | 122 kts | 50° |
| 2026-05-05 15:32 | 53.58122 | 9.88904 | 1294 ft | 121 kts | 49° |
| 2026-05-05 15:32 | 53.58665 | 9.89998 | 1127 ft | 122 kts | 50° |
| 2026-05-05 15:32 | 53.59206 | 9.91086 | 947 ft | 121 kts | 50° |
| 2026-05-05 15:32 | 53.59748 | 9.92181 | 788 ft | 122 kts | 49° |
| 2026-05-05 15:33 | 53.60290 | 9.93274 | 613 ft | 121 kts | 50° |
| 2026-05-05 15:33 | 53.60830 | 9.94364 | 439 ft | 121 kts | 50° |
| 2026-05-05 15:33 | 53.61370 | 9.95454 | 288 ft | 122 kts | 50° |
| 2026-05-05 15:33 | 53.61911 | 9.96546 | 120 ft | 121 kts | 50° |
| 2026-05-05 15:34 | 53.62442 | 9.97616 | 46 ft | 112 kts | 50° |
| 2026-05-05 15:34 | 53.62852 | 9.98443 | 48 ft | 75 kts | 50° |
| 2026-05-05 15:34 | 53.63173 | 9.99091 | 50 ft | 72 kts | 50° |
| 2026-05-05 15:34 | 53.63290 | 9.99517 | 49 ft | 22 kts | 100° |
| 2026-05-05 15:35 | 53.63277 | 9.99649 | 49 ft | 0 kts | 98° |
| 2026-05-05 15:35 | 53.63277 | 9.99650 | 49 ft | 0 kts | 98° |
| 2026-05-05 15:35 | 53.63277 | 9.99652 | 49 ft | 0 kts | 98° |
| 2026-05-05 15:36 | 53.63277 | 9.99658 | 49 ft | 2 kts | 98° |
| 2026-05-05 15:36 | 53.63263 | 9.99717 | 48 ft | 10 kts | 125° |
| 2026-05-05 15:36 | 53.63176 | 9.99804 | 48 ft | 20 kts | 153° |
| 2026-05-05 15:36 | 53.63027 | 9.99932 | 47 ft | 27 kts | 153° |
| 2026-05-05 15:37 | 53.62940 | 10.00100 | 46 ft | 18 kts | 81° |
| 2026-05-05 15:37 | 53.62992 | 10.00180 | 45 ft | 4 kts | 43° |
| 2026-05-05 15:37 | 53.62985 | 10.00231 | 46 ft | 6 kts | 117° |
| 2026-05-05 15:37 | 53.62973 | 10.00266 | 45 ft | 1 kts | 120° |
| 2026-05-05 15:38 | 53.62972 | 10.00269 | 46 ft | 0 kts | 120° |